Fecha, hora, temperatura, viento dirección y velocidad, humedad y presión.

  • 19-03-2019 23:00:00 | 11.20°C | Norte |11.00 km/h | 72.00% | 1031.40 hPa
  • 19-03-2019 22:00:00 | 11.30°C | Norte |12.00 km/h | 71.00% | 1031.00 hPa
  • 19-03-2019 21:00:00 | 11.30°C | Norte |12.00 km/h | 69.00% | 1030.60 hPa
  • 19-03-2019 20:00:00 | 11.40°C | Norte |12.00 km/h | 69.00% | 1030.20 hPa
  • 19-03-2019 19:00:00 | 11.70°C | Norte |9.00 km/h | 64.00% | 1029.90 hPa
  • 19-03-2019 18:00:00 | 12.20°C | Norte |11.00 km/h | 62.00% | 1029.40 hPa
  • 19-03-2019 17:00:00 | 12.40°C | Norte |13.00 km/h | 61.00% | 1029.20 hPa
  • 19-03-2019 16:00:00 | 12.80°C | Norte |13.00 km/h | 61.00% | 1029.10 hPa
  • 19-03-2019 15:00:00 | 13.50°C | Norte |13.00 km/h | 59.00% | 1028.90 hPa
  • 19-03-2019 14:00:00 | 12.70°C | Norte |13.00 km/h | 61.00% | 1029.10 hPa
  • 19-03-2019 13:00:00 | 12.70°C | Nordeste |13.00 km/h | 65.00% | 1029.20 hPa
  • 19-03-2019 12:00:00 | 12.20°C | Nordeste |12.00 km/h | 69.00% | 1028.90 hPa
  • 19-03-2019 11:00:00 | 11.80°C | Nordeste |13.00 km/h | 73.00% | 1028.70 hPa
  • 19-03-2019 10:00:00 | 11.40°C | Nordeste |10.00 km/h | 76.00% | 1028.30 hPa
  • 19-03-2019 09:00:00 | 10.50°C | Este |6.00 km/h | 83.00% | 1027.70 hPa
  • 19-03-2019 08:00:00 | 9.60°C | Este |2.00 km/h | 90.00% | 1027.40 hPa
  • 19-03-2019 07:00:00 | 9.70°C | Oeste |5.00 km/h | 93.00% | 1026.60 hPa
  • 19-03-2019 06:00:00 | 9.50°C | Sudoeste |6.00 km/h | 93.00% | 1026.50 hPa
  • 19-03-2019 05:00:00 | 9.70°C | Este |9.00 km/h | 91.00% | 1026.70 hPa
  • 19-03-2019 04:00:00 | 9.50°C | Oeste |5.00 km/h | 91.00% | 1026.60 hPa
  • 19-03-2019 03:00:00 | 9.70°C | Noroeste |7.00 km/h | 86.00% | 1027.20 hPa
  • 19-03-2019 02:00:00 | 9.70°C | Noroeste |9.00 km/h | 86.00% | 1027.70 hPa
  • 19-03-2019 01:00:00 | 9.70°C | Norte |13.00 km/h | 85.00% | 1028.10 hPa
  • 19-03-2019 00:00:00 | 9.90°C | Norte |10.00 km/h | 83.00% | 1028.00 hPa
    • diseño web asturias Información sobre el estado de las mareas, altura de la marejada, temperatura del agua y otros datos de Gijón en Asturias.

      Surf Gijón